Avilla, Missouri
Current Conditions -  °F | °C
As of 5:53 PM on Sunday 21 Dec 2014 (Local Time) from KJLN Reporting Station
Overcast Overcast  
Wind Chill: 42°   Ceiling: 4200
Heat Index: 46°   Visibility: 10mi
Dew Point: 38°   Wind: 8mph
Humidity: 73%   Direction: 140°SE
Pressure: 29.86"   Gusts: NA
Location:  37.2°N, 94.13°W
Report Text: KJLN 212353Z 14007KT 10SM BKN042 OVC060 08/03 A2986 RMK AO2 SLP112 T00780033 10094 20078 58009 $
Loading
Personal Weather Stations






























Interactive Weather Map New forecast layout! Learn more

10-Day Weather Forecast

Advertisements
Track Severe Weather on mobile